Time;durP1;ratioP1;P1;durP2;ratioP2;P2;SDS_P1;SDS_P2;PMS_P1;PMS_P2;Temp;Humidity;BMP_temperature;BMP_pressure;BME280_temperature;BME280_humidity;BME280_pressure;Samples;Min_cycle;Max_cycle;Signal;HPM_P1;HPM_P2
2023/05/29 00:01:35;;;;;;;;;;;;;;;;;;5052998;28;19954;-42
2023/05/29 00:04:01;;;;;;;;;;;;;;;;;;5052986;28;19909;-42
2023/05/29 00:06:27;;;;;;;;;;;;;;;;;;5052852;28;19920;-42
2023/05/29 00:08:53;;;;;;;;;;;;;;;;;;5053016;28;19909;-44
2023/05/29 00:11:20;;;;;;;;;;;;;;;;;;5052772;28;19905;-43
2023/05/29 00:13:45;;;;;;;;;;;;;;;;;;5053104;28;19991;-42
2023/05/29 00:16:12;;;;;;;;;;;;;;;;;;5053050;28;19909;-43
2023/05/29 00:18:45;;;;;;;;;;;;;;;;;;5053036;28;19935;-43
2023/05/29 00:21:10;;;;;;;;;;;;;;;;;;5052734;28;20043;-43
2023/05/29 00:23:36;;;;;;;;;;;;;;;;;;5052871;28;20476;-43
2023/05/29 00:26:02;;;;;;;;;;;;;;;;;;5052625;28;19913;-42
2023/05/29 00:28:28;;;;;;;;;;;;;;;;;;5052950;28;19913;-43
2023/05/29 00:30:54;;;;;;;;;;;;;;;;;;5052964;28;19917;-44
2023/05/29 00:33:20;;;;;;;;;;;;;;;;;;5052730;28;20291;-44
2023/05/29 00:35:46;;;;;;;;;;;;;;;;;;5052531;28;19948;-43
2023/05/29 00:38:12;;;;;;;;;;;;;;;;;;5052448;28;19909;-44
2023/05/29 00:40:37;;;;;;;;;;;;;;;;;;5051390;28;19921;-43
2023/05/29 00:43:03;;;;;;;;;;;;;;;;;;5062212;28;20011;-43
2023/05/29 00:45:30;;;;;;;;;;;;;;;;;;5063900;28;19963;-43
2023/05/29 00:47:56;;;;;;;;;;;;;;;;;;5058071;28;19909;-43
2023/05/29 00:50:23;;;;;;;;;;;;;;;;;;5052581;28;20272;-44
2023/05/29 00:52:49;;;;;;;;;;;;;;;;;;5052652;28;19923;-43
2023/05/29 00:55:15;;;;;;;;;;;;;;;;;;5052681;28;19908;-43
2023/05/29 00:57:41;;;;;;;;;;;;;;;;;;5052612;28;19916;-43
2023/05/29 01:00:08;;;;;;;;;;;;;;;;;;5051472;28;20277;-46
2023/05/29 01:02:36;;;;;;;;;;;;;;;;;;5052698;28;20345;-43
2023/05/29 01:05:02;;;;;;;;;;;;;;;;;;5052538;28;20377;-43
2023/05/29 01:07:28;;;;;;;;;;;;;;;;;;5052588;28;20442;-43
2023/05/29 01:09:53;;;;;;;;;;;;;;;;;;5056617;28;19949;-44
2023/05/29 01:12:20;;;;;;;;;;;;;;;;;;5056554;28;20405;-43
2023/05/29 01:14:46;;;;;;;;;;;;;;;;;;5056521;28;19909;-44
2023/05/29 01:17:11;;;;;;;;;;;;;;;;;;5056453;28;19909;-44
2023/05/29 01:19:37;;;;;;;;;;;;;;;;;;5056347;28;20305;-43
2023/05/29 01:22:03;;;;;;;;;;;;;;;;;;5056266;28;19916;-43
2023/05/29 01:24:29;;;;;;;;;;;;;;;;;;5056355;28;20050;-44
2023/05/29 01:26:55;;;;;;;;;;;;;;;;;;5056443;28;19912;-34
2023/05/29 01:29:21;;;;;;;;;;;;;;;;;;5055843;28;19927;-33
2023/05/29 01:31:47;;;;;;;;;;;;;;;;;;5056168;28;19919;-33
2023/05/29 01:34:13;;;;;;;;;;;;;;;;;;5054695;28;19916;-33
2023/05/29 01:36:39;;;;;;;;;;;;;;;;;;5055672;28;19913;-33
2023/05/29 01:39:05;;;;;;;;;;;;;;;;;;5055592;28;19974;-34
2023/05/29 01:41:31;;;;;;;;;;;;;;;;;;5055564;28;20007;-33
2023/05/29 01:43:57;;;;;;;;;;;;;;;;;;5054492;28;20334;-34
2023/05/29 01:46:25;;;;;;;;;;;;;;;;;;5054218;28;20003;-34
2023/05/29 01:48:50;;;;;;;;;;;;;;;;;;5055776;28;19909;-33
2023/05/29 01:51:16;;;;;;;;;;;;;;;;;;5055393;28;20381;-34
2023/05/29 01:53:42;;;;;;;;;;;;;;;;;;5055604;28;19919;-34
2023/05/29 01:56:08;;;;;;;;;;;;;;;;;;5055461;28;19909;-33
2023/05/29 01:58:34;;;;;;;;;;;;;;;;;;5055580;28;19962;-33
2023/05/29 02:01:00;;;;;;;;;;;;;;;;;;5055290;28;19913;-33
2023/05/29 02:03:28;;;;;;;;;;;;;;;;;;5055355;28;19909;-34
2023/05/29 02:05:55;;;;;;;;;;;;;;;;;;5055410;28;19912;-34
2023/05/29 02:08:21;;;;;;;;;;;;;;;;;;5055125;28;19909;-34
2023/05/29 02:10:47;;;;;;;;;;;;;;;;;;5055172;28;19916;-34
2023/05/29 02:13:12;;;;;;;;;;;;;;;;;;5055140;28;19915;-34
2023/05/29 02:15:38;;;;;;;;;;;;;;;;;;5055047;28;19950;-33
2023/05/29 02:18:04;;;;;;;;;;;;;;;;;;5055129;28;20341;-34
2023/05/29 02:20:30;;;;;;;;;;;;;;;;;;5052957;28;19916;-34
2023/05/29 02:22:56;;;;;;;;;;;;;;;;;;5055001;28;19909;-34
2023/05/29 02:25:22;;;;;;;;;;;;;;;;;;5054777;28;19919;-35
2023/05/29 02:27:48;;;;;;;;;;;;;;;;;;5054674;28;19908;-33
2023/05/29 02:30:13;;;;;;;;;;;;;;;;;;5054670;28;19970;-33
2023/05/29 02:32:40;;;;;;;;;;;;;;;;;;5054721;28;19920;-33
2023/05/29 02:35:07;;;;;;;;;;;;;;;;;;5054704;28;19932;-33
2023/05/29 02:37:32;;;;;;;;;;;;;;;;;;5054792;28;20315;-33
2023/05/29 02:39:58;;;;;;;;;;;;;;;;;;5052995;28;19921;-33
2023/05/29 02:42:24;;;;;;;;;;;;;;;;;;5054715;28;19913;-33
2023/05/29 02:44:50;;;;;;;;;;;;;;;;;;5054442;28;19919;-33
2023/05/29 02:47:16;;;;;;;;;;;;;;;;;;5054634;28;20464;-34
2023/05/29 02:49:42;;;;;;;;;;;;;;;;;;5054416;28;19913;-34
2023/05/29 02:52:08;;;;;;;;;;;;;;;;;;5054564;28;19909;-34
2023/05/29 02:54:33;;;;;;;;;;;;;;;;;;5054276;28;19916;-34
2023/05/29 02:57:00;;;;;;;;;;;;;;;;;;5054389;28;19952;-33
2023/05/29 02:59:26;;;;;;;;;;;;;;;;;;5054274;28;20297;-33
2023/05/29 03:01:52;;;;;;;;;;;;;;;;;;5054089;28;19978;-34
2023/05/29 03:04:18;;;;;;;;;;;;;;;;;;5054223;28;19909;-34
2023/05/29 03:06:45;;;;;;;;;;;;;;;;;;5054008;28;19959;-33
2023/05/29 03:09:12;;;;;;;;;;;;;;;;;;5052585;28;19917;-34
2023/05/29 03:11:40;;;;;;;;;;;;;;;;;;5053913;28;19909;-34
2023/05/29 03:14:06;;;;;;;;;;;;;;;;;;5053840;28;19913;-34
2023/05/29 03:16:32;;;;;;;;;;;;;;;;;;5053923;28;19909;-33
2023/05/29 03:18:58;;;;;;;;;;;;;;;;;;5053813;28;19909;-34
2023/05/29 03:21:24;;;;;;;;;;;;;;;;;;5053613;28;19978;-34
2023/05/29 03:23:50;;;;;;;;;;;;;;;;;;5053850;28;19962;-34
2023/05/29 03:26:16;;;;;;;;;;;;;;;;;;5052651;28;19913;-34
2023/05/29 03:28:42;;;;;;;;;;;;;;;;;;5053734;28;19912;-34
2023/05/29 03:31:08;;;;;;;;;;;;;;;;;;5053268;28;19916;-33
2023/05/29 03:33:34;;;;;;;;;;;;;;;;;;5053250;28;19931;-33
2023/05/29 03:36:00;;;;;;;;;;;;;;;;;;5053490;28;19912;-33
2023/05/29 03:38:26;;;;;;;;;;;;;;;;;;5053636;28;20263;-34
2023/05/29 03:40:51;;;;;;;;;;;;;;;;;;5053365;28;19960;-34
2023/05/29 03:43:17;;;;;;;;;;;;;;;;;;5053357;28;19912;-34
2023/05/29 03:45:43;;;;;;;;;;;;;;;;;;5053142;28;19978;-33
2023/05/29 03:48:09;;;;;;;;;;;;;;;;;;5053306;28;19909;-33
2023/05/29 03:50:35;;;;;;;;;;;;;;;;;;5053429;28;19915;-33
2023/05/29 03:53:01;;;;;;;;;;;;;;;;;;5053256;28;19955;-34
2023/05/29 03:55:28;;;;;;;;;;;;;;;;;;5053075;28;19909;-33
2023/05/29 03:57:54;;;;;;;;;;;;;;;;;;5053270;28;19916;-34
2023/05/29 04:00:20;;;;;;;;;;;;;;;;;;5053051;28;19970;-33
2023/05/29 04:02:46;;;;;;;;;;;;;;;;;;5053067;28;19955;-33
2023/05/29 04:05:12;;;;;;;;;;;;;;;;;;5052866;28;20357;-33
2023/05/29 04:07:38;;;;;;;;;;;;;;;;;;5052986;28;20346;-33
2023/05/29 04:10:04;;;;;;;;;;;;;;;;;;5053012;28;19915;-33
2023/05/29 04:12:31;;;;;;;;;;;;;;;;;;5052831;28;20329;-33
2023/05/29 04:14:57;;;;;;;;;;;;;;;;;;5052935;28;19931;-42
2023/05/29 04:17:23;;;;;;;;;;;;;;;;;;5052817;28;19909;-33
2023/05/29 04:19:48;;;;;;;;;;;;;;;;;;5052709;28;19913;-33
2023/05/29 04:22:14;;;;;;;;;;;;;;;;;;5052860;28;20023;-32
2023/05/29 04:24:41;;;;;;;;;;;;;;;;;;5052949;28;19913;-33
2023/05/29 04:27:08;;;;;;;;;;;;;;;;;;5052899;28;19928;-33
2023/05/29 04:29:34;;;;;;;;;;;;;;;;;;5052734;28;19912;-33
2023/05/29 04:32:03;;;;;;;;;;;;;;;;;;5052515;28;19916;-33
2023/05/29 04:34:30;;;;;;;;;;;;;;;;;;5052479;28;20027;-33
2023/05/29 04:36:58;;;;;;;;;;;;;;;;;;5052758;28;19905;-34
2023/05/29 04:39:24;;;;;;;;;;;;;;;;;;5052566;28;20028;-33
2023/05/29 04:41:51;;;;;;;;;;;;;;;;;;5052795;28;20703;-33
2023/05/29 04:44:17;;;;;;;;;;;;;;;;;;5050976;28;19963;-33
2023/05/29 04:46:44;;;;;;;;;;;;;;;;;;5052383;28;19913;-33
2023/05/29 04:49:09;;;;;;;;;;;;;;;;;;5052396;28;20141;-33
2023/05/29 04:51:36;;;;;;;;;;;;;;;;;;5052113;28;19909;-33
2023/05/29 04:54:02;;;;;;;;;;;;;;;;;;5052230;28;19912;-33
2023/05/29 04:56:28;;;;;;;;;;;;;;;;;;5052255;28;19959;-33
2023/05/29 04:58:54;;;;;;;;;;;;;;;;;;5052272;28;19940;-33
2023/05/29 05:01:20;;;;;;;;;;;;;;;;;;5052170;28;19959;-34
2023/05/29 05:03:45;;;;;;;;;;;;;;;;;;5052378;28;20003;-33
2023/05/29 05:06:12;;;;;;;;;;;;;;;;;;5052166;28;19920;-34
2023/05/29 05:08:38;;;;;;;;;;;;;;;;;;5052277;28;19944;-33
2023/05/29 05:11:05;;;;;;;;;;;;;;;;;;5052169;28;19909;-34
2023/05/29 05:13:31;;;;;;;;;;;;;;;;;;5052240;28;20022;-33
2023/05/29 05:15:57;;;;;;;;;;;;;;;;;;5052466;28;20003;-34
2023/05/29 05:18:23;;;;;;;;;;;;;;;;;;5052172;28;19909;-38
2023/05/29 05:20:49;;;;;;;;;;;;;;;;;;5051999;28;19912;-32
2023/05/29 05:23:15;;;;;;;;;;;;;;;;;;5052092;28;20003;-35
2023/05/29 05:25:40;;;;;;;;;;;;;;;;;;5050802;28;19916;-34
2023/05/29 05:28:06;;;;;;;;;;;;;;;;;;5051998;28;20426;-34
2023/05/29 05:30:32;;;;;;;;;;;;;;;;;;5051953;28;19909;-34
2023/05/29 05:32:58;;;;;;;;;;;;;;;;;;5050802;28;20011;-34
2023/05/29 05:35:24;;;;;;;;;;;;;;;;;;5052078;28;19909;-34
2023/05/29 05:37:50;;;;;;;;;;;;;;;;;;5052066;28;19919;-34
2023/05/29 05:40:16;;;;;;;;;;;;;;;;;;5051824;28;19921;-33
2023/05/29 05:42:42;;;;;;;;;;;;;;;;;;5052048;28;19913;-33
2023/05/29 05:45:08;;;;;;;;;;;;;;;;;;5051743;28;19909;-34
2023/05/29 05:47:34;;;;;;;;;;;;;;;;;;5051785;28;19959;-34
2023/05/29 05:49:59;;;;;;;;;;;;;;;;;;5051803;28;19912;-34
2023/05/29 05:52:30;;;;;;;;;;;;;;;;;;5051846;28;19909;-33
2023/05/29 05:54:56;;;;;;;;;;;;;;;;;;5053043;28;19978;-34
2023/05/29 05:57:21;;;;;;;;;;;;;;;;;;5056080;28;20373;-34
2023/05/29 05:59:47;;;;;;;;;;;;;;;;;;5055330;28;20000;-34
2023/05/29 06:02:13;;;;;;;;;;;;;;;;;;5055218;28;19909;-33
2023/05/29 06:04:39;;;;;;;;;;;;;;;;;;5055224;28;19951;-34
2023/05/29 06:07:06;;;;;;;;;;;;;;;;;;5054980;28;20457;-34
2023/05/29 06:09:32;;;;;;;;;;;;;;;;;;5055169;28;20254;-33
2023/05/29 06:11:58;;;;;;;;;;;;;;;;;;5054774;28;19912;-38
2023/05/29 06:14:25;;;;;;;;;;;;;;;;;;5054871;28;19999;-41
2023/05/29 06:16:51;;;;;;;;;;;;;;;;;;5054737;28;19905;-39
2023/05/29 06:19:17;;;;;;;;;;;;;;;;;;5053487;28;20384;-43
2023/05/29 06:21:42;;;;;;;;;;;;;;;;;;5054664;28;19912;-40
2023/05/29 06:24:08;;;;;;;;;;;;;;;;;;5054865;28;19908;-38
2023/05/29 06:26:35;;;;;;;;;;;;;;;;;;5054469;28;20008;-41
2023/05/29 06:29:00;;;;;;;;;;;;;;;;;;5054455;28;19936;-41
2023/05/29 06:31:26;;;;;;;;;;;;;;;;;;5054684;28;20350;-45
2023/05/29 06:33:52;;;;;;;;;;;;;;;;;;5054424;28;19955;-41
2023/05/29 06:36:18;;;;;;;;;;;;;;;;;;5054417;28;20366;-43
2023/05/29 06:38:44;;;;;;;;;;;;;;;;;;5054479;28;19912;-40
2023/05/29 06:41:10;;;;;;;;;;;;;;;;;;5054152;28;19974;-38
2023/05/29 06:43:36;;;;;;;;;;;;;;;;;;5054267;28;19999;-41
2023/05/29 06:46:02;;;;;;;;;;;;;;;;;;5054173;28;20296;-40
2023/05/29 06:48:28;;;;;;;;;;;;;;;;;;5054246;28;19916;-41
2023/05/29 06:50:53;;;;;;;;;;;;;;;;;;5053961;28;20258;-38
2023/05/29 06:53:19;;;;;;;;;;;;;;;;;;5054372;28;19992;-40
2023/05/29 06:55:45;;;;;;;;;;;;;;;;;;5054281;28;19909;-40
2023/05/29 06:58:11;;;;;;;;;;;;;;;;;;5053926;28;20035;-40
2023/05/29 07:00:37;;;;;;;;;;;;;;;;;;5053990;28;19963;-39
2023/05/29 07:03:03;;;;;;;;;;;;;;;;;;5053980;28;19909;-40
2023/05/29 07:05:29;;;;;;;;;;;;;;;;;;5053484;28;19917;-42
2023/05/29 07:07:55;;;;;;;;;;;;;;;;;;5053800;28;19915;-41
2023/05/29 07:10:20;;;;;;;;;;;;;;;;;;5052406;28;19905;-40
2023/05/29 07:12:46;;;;;;;;;;;;;;;;;;5053793;28;19915;-41
2023/05/29 07:15:12;;;;;;;;;;;;;;;;;;5053860;28;19909;-41
2023/05/29 07:17:38;;;;;;;;;;;;;;;;;;5053666;28;19923;-38
2023/05/29 07:20:07;;;;;;;;;;;;;;;;;;5053668;28;19909;-41
2023/05/29 07:22:33;;;;;;;;;;;;;;;;;;5053421;28;19912;-38
2023/05/29 07:24:59;;;;;;;;;;;;;;;;;;5053514;28;19931;-42
2023/05/29 07:27:25;;;;;;;;;;;;;;;;;;5053428;28;19909;-41
2023/05/29 07:29:51;;;;;;;;;;;;;;;;;;5053454;28;19935;-39
2023/05/29 07:32:16;;;;;;;;;;;;;;;;;;5053377;28;20020;-37
2023/05/29 07:34:42;;;;;;;;;;;;;;;;;;5053118;28;20383;-40
2023/05/29 07:37:08;;;;;;;;;;;;;;;;;;5053456;28;19909;-39
2023/05/29 07:39:34;;;;;;;;;;;;;;;;;;5052952;28;20067;-40
2023/05/29 07:42:05;;;;;;;;;;;;;;;;;;5053181;28;20122;-40
2023/05/29 07:44:31;;;;;;;;;;;;;;;;;;5053188;28;19987;-40
2023/05/29 07:46:57;;;;;;;;;;;;;;;;;;5052982;28;20004;-40
2023/05/29 07:49:23;;;;;;;;;;;;;;;;;;5053059;28;19909;-41
2023/05/29 07:51:48;;;;;;;;;;;;;;;;;;5053071;28;19913;-38
2023/05/29 07:54:17;;;;;;;;;;;;;;;;;;5053147;28;19909;-40
2023/05/29 07:56:44;;;;;;;;;;;;;;;;;;5053062;28;19916;-41
2023/05/29 07:59:10;;;;;;;;;;;;;;;;;;5052930;28;19913;-40
2023/05/29 08:01:36;;;;;;;;;;;;;;;;;;5052916;28;19956;-41
2023/05/29 08:04:02;;;;;;;;;;;;;;;;;;5052813;28;20003;-41
2023/05/29 08:06:27;;;;;;;;;;;;;;;;;;5052677;28;19920;-41
2023/05/29 08:08:53;;;;;;;;;;;;;;;;;;5052641;28;19915;-41
2023/05/29 08:11:19;;;;;;;;;;;;;;;;;;5052624;28;19909;-40
2023/05/29 08:13:45;;;;;;;;;;;;;;;;;;5052609;28;19948;-39
2023/05/29 08:16:14;;;;;;;;;;;;;;;;;;5052683;28;19909;-39
2023/05/29 08:18:40;;;;;;;;;;;;;;;;;;5052192;28;19963;-39
2023/05/29 08:21:06;;;;;;;;;;;;;;;;;;5052481;28;19913;-40
2023/05/29 08:23:32;;;;;;;;;;;;;;;;;;5052587;28;19909;-41
2023/05/29 08:25:58;;;;;;;;;;;;;;;;;;5052209;28;20273;-41
2023/05/29 08:28:26;;;;;;;;;;;;;;;;;;5052424;28;19909;-41
2023/05/29 08:30:52;;;;;;;;;;;;;;;;;;5052322;28;20293;-39
2023/05/29 08:33:17;;;;;;;;;;;;;;;;;;5052392;28;19953;-40
2023/05/29 08:35:43;;;;;;;;;;;;;;;;;;5052188;28;20383;-40
2023/05/29 08:38:09;;;;;;;;;;;;;;;;;;5050919;28;19916;-40
2023/05/29 08:40:35;;;;;;;;;;;;;;;;;;5052122;28;20442;-40
2023/05/29 08:43:01;;;;;;;;;;;;;;;;;;5052165;28;19913;-41
2023/05/29 08:45:27;;;;;;;;;;;;;;;;;;5052314;28;20369;-41
2023/05/29 08:47:53;;;;;;;;;;;;;;;;;;5052248;28;19967;-40
2023/05/29 08:50:19;;;;;;;;;;;;;;;;;;5052125;28;19919;-40
2023/05/29 08:52:45;;;;;;;;;;;;;;;;;;5052095;28;20385;-41
2023/05/29 08:55:11;;;;;;;;;;;;;;;;;;5052040;28;20277;-40
2023/05/29 08:57:38;;;;;;;;;;;;;;;;;;5052073;28;19909;-41
2023/05/29 09:00:09;;;;;;;;;;;;;;;;;;5051974;28;19909;-40
2023/05/29 09:02:36;;;;;;;;;;;;;;;;;;5052262;28;19967;-38
2023/05/29 09:05:03;;;;;;;;;;;;;;;;;;5052282;28;19905;-41
2023/05/29 09:07:30;;;;;;;;;;;;;;;;;;5051120;28;19920;-41
2023/05/29 09:09:56;;;;;;;;;;;;;;;;;;5052114;28;19912;-40
2023/05/29 09:12:22;;;;;;;;;;;;;;;;;;5052029;28;19936;-40
2023/05/29 09:14:48;;;;;;;;;;;;;;;;;;5052033;28;19908;-41
2023/05/29 09:17:15;;;;;;;;;;;;;;;;;;5051807;28;19909;-39
2023/05/29 09:19:41;;;;;;;;;;;;;;;;;;5051935;28;19919;-38
2023/05/29 09:22:07;;;;;;;;;;;;;;;;;;5051949;28;20332;-40
2023/05/29 09:24:33;;;;;;;;;;;;;;;;;;5051619;28;19995;-41
2023/05/29 09:27:00;;;;;;;;;;;;;;;;;;5051459;28;19913;-40
2023/05/29 09:29:26;;;;;;;;;;;;;;;;;;5051689;28;19916;-39
2023/05/29 09:31:52;;;;;;;;;;;;;;;;;;5055404;28;19911;-41
2023/05/29 09:34:17;;;;;;;;;;;;;;;;;;5055562;28;19999;-40
2023/05/29 09:36:43;;;;;;;;;;;;;;;;;;5055475;28;19905;-39
2023/05/29 09:39:09;;;;;;;;;;;;;;;;;;5057441;28;20000;-40
2023/05/29 09:41:35;;;;;;;;;;;;;;;;;;5061445;28;19966;-40
2023/05/29 09:44:03;;;;;;;;;;;;;;;;;;5066163;28;19952;-37
2023/05/29 09:46:29;;;;;;;;;;;;;;;;;;5054957;28;19963;-39
2023/05/29 09:48:55;;;;;;;;;;;;;;;;;;5054771;28;19909;-37
2023/05/29 09:51:21;;;;;;;;;;;;;;;;;;5054756;28;20250;-42
2023/05/29 09:53:48;;;;;;;;;;;;;;;;;;5055180;28;20354;-40
2023/05/29 09:56:17;;;;;;;;;;;;;;;;;;5055070;28;19915;-41
2023/05/29 09:58:46;;;;;;;;;;;;;;;;;;5055425;28;19948;-41
2023/05/29 10:01:12;;;;;;;;;;;;;;;;;;5055225;28;19923;-29
2023/05/29 10:03:39;;;;;;;;;;;;;;;;;;5055886;28;19966;-29
2023/05/29 10:06:05;;;;;;;;;;;;;;;;;;5054902;28;20362;-29
2023/05/29 10:08:31;;;;;;;;;;;;;;;;;;5055387;28;19909;-30
2023/05/29 10:10:57;;;;;;;;;;;;;;;;;;5055706;28;19930;-35
2023/05/29 10:13:24;;;;;;;;;;;;;;;;;;5055549;28;19916;-30
2023/05/29 10:15:51;;;;;;;;;;;;;;;;;;5055527;28;19920;-29
2023/05/29 10:18:19;;;;;;;;;;;;;;;;;;5055380;28;19959;-31
2023/05/29 10:20:45;;;;;;;;;;;;;;;;;;5055419;28;20361;-30
2023/05/29 10:23:11;;;;;;;;;;;;;;;;;;5055205;28;19909;-32
2023/05/29 10:25:37;;;;;;;;;;;;;;;;;;5055258;28;19927;-29
2023/05/29 10:28:03;;;;;;;;;;;;;;;;;;5055731;28;19909;-29
2023/05/29 10:30:29;;;;;;;;;;;;;;;;;;5055077;28;19967;-29
2023/05/29 10:32:56;;;;;;;;;;;;;;;;;;5055207;28;19909;-30
2023/05/29 10:35:21;;;;;;;;;;;;;;;;;;5055460;28;19913;-32
2023/05/29 10:37:47;;;;;;;;;;;;;;;;;;5055424;28;20441;-32
2023/05/29 10:40:14;;;;;;;;;;;;;;;;;;5054862;28;19921;-34
2023/05/29 10:42:40;;;;;;;;;;;;;;;;;;5054922;28;19917;-30
2023/05/29 10:45:06;;;;;;;;;;;;;;;;;;5055071;28;19916;-31
2023/05/29 10:47:32;;;;;;;;;;;;;;;;;;5055418;28;20346;-33
2023/05/29 10:49:58;;;;;;;;;;;;;;;;;;5054946;28;19998;-29
2023/05/29 10:52:24;;;;;;;;;;;;;;;;;;5054842;28;20003;-30
2023/05/29 10:54:50;;;;;;;;;;;;;;;;;;5054943;28;20285;-35
2023/05/29 10:57:16;;;;;;;;;;;;;;;;;;5054776;28;19915;-30
2023/05/29 10:59:42;;;;;;;;;;;;;;;;;;5053417;28;19909;-29
2023/05/29 11:02:08;;;;;;;;;;;;;;;;;;5054822;28;19999;-30
2023/05/29 11:04:34;;;;;;;;;;;;;;;;;;5054686;28;19909;-30
2023/05/29 11:07:00;;;;;;;;;;;;;;;;;;5054680;28;20362;-31
2023/05/29 11:09:26;;;;;;;;;;;;;;;;;;5054465;28;20415;-30
2023/05/29 11:11:51;;;;;;;;;;;;;;;;;;5054465;28;19912;-30
2023/05/29 11:14:17;;;;;;;;;;;;;;;;;;5054387;28;19909;-31
2023/05/29 11:16:43;;;;;;;;;;;;;;;;;;5053224;28;19970;-29
2023/05/29 11:19:10;;;;;;;;;;;;;;;;;;5054524;28;19909;-30
2023/05/29 11:21:36;;;;;;;;;;;;;;;;;;5054475;28;19948;-30
2023/05/29 11:24:10;;;;;;;;;;;;;;;;;;5053463;28;19956;-41
2023/05/29 11:26:36;;;;;;;;;;;;;;;;;;5053450;28;19913;-38
2023/05/29 11:29:02;;;;;;;;;;;;;;;;;;5052200;28;19932;-36
2023/05/29 11:31:30;;;;;;;;;;;;;;;;;;5053356;28;19909;-39
2023/05/29 11:33:57;;;;;;;;;;;;;;;;;;5053208;28;19909;-42
2023/05/29 11:36:22;;;;;;;;;;;;;;;;;;5051947;28;20319;-40
2023/05/29 11:38:48;;;;;;;;;;;;;;;;;;5053163;28;19922;-40
2023/05/29 11:41:14;;;;;;;;;;;;;;;;;;5052760;28;19925;-38
2023/05/29 11:43:40;;;;;;;;;;;;;;;;;;5053046;28;19927;-41
2023/05/29 11:46:06;;;;;;;;;;;;;;;;;;5052888;28;19919;-39
2023/05/29 11:48:33;;;;;;;;;;;;;;;;;;5053308;28;19975;-40
2023/05/29 11:51:00;;;;;;;;;;;;;;;;;;5052968;28;19948;-38
2023/05/29 11:53:26;;;;;;;;;;;;;;;;;;5052006;28;19909;-41
2023/05/29 11:55:52;;;;;;;;;;;;;;;;;;5053136;28;20385;-41
2023/05/29 11:58:18;;;;;;;;;;;;;;;;;;5053143;28;19943;-41
2023/05/29 12:00:46;;;;;;;;;;;;;;;;;;5053069;28;19915;-40
2023/05/29 12:03:12;;;;;;;;;;;;;;;;;;5052678;28;20388;-40
2023/05/29 12:05:38;;;;;;;;;;;;;;;;;;5052799;28;19921;-41
2023/05/29 12:08:04;;;;;;;;;;;;;;;;;;5052637;28;19909;-41
2023/05/29 12:10:30;;;;;;;;;;;;;;;;;;5052549;28;19967;-41
2023/05/29 12:12:56;;;;;;;;;;;;;;;;;;5052502;28;19909;-40
2023/05/29 12:15:22;;;;;;;;;;;;;;;;;;5052555;28;19908;-40
2023/05/29 12:17:48;;;;;;;;;;;;;;;;;;5052301;28;20320;-41
2023/05/29 12:20:14;;;;;;;;;;;;;;;;;;5052399;28;19909;-41
2023/05/29 12:22:40;;;;;;;;;;;;;;;;;;5052321;28;19919;-42
2023/05/29 12:25:07;;;;;;;;;;;;;;;;;;5052394;28;20058;-41
2023/05/29 12:27:37;;;;;;;;;;;;;;;;;;5052215;28;19913;-41
2023/05/29 12:30:03;;;;;;;;;;;;;;;;;;5052186;28;19940;-41
2023/05/29 12:32:28;;;;;;;;;;;;;;;;;;5052169;28;19959;-41
2023/05/29 12:34:54;;;;;;;;;;;;;;;;;;5052173;28;20315;-41
2023/05/29 12:37:20;;;;;;;;;;;;;;;;;;5050859;28;19912;-41
2023/05/29 12:39:46;;;;;;;;;;;;;;;;;;5051850;28;19921;-41
2023/05/29 12:42:13;;;;;;;;;;;;;;;;;;5052044;28;20277;-40
2023/05/29 12:44:39;;;;;;;;;;;;;;;;;;5052073;28;20003;-40
2023/05/29 12:47:05;;;;;;;;;;;;;;;;;;5051931;28;20019;-41
2023/05/29 12:49:31;;;;;;;;;;;;;;;;;;5052104;28;19909;-41
2023/05/29 12:51:57;;;;;;;;;;;;;;;;;;5051908;28;20439;-42
2023/05/29 12:54:23;;;;;;;;;;;;;;;;;;5051870;28;19959;-40
2023/05/29 12:56:51;;;;;;;;;;;;;;;;;;5051764;28;20281;-40
2023/05/29 12:59:17;;;;;;;;;;;;;;;;;;5051980;28;19931;-41
2023/05/29 13:01:43;;;;;;;;;;;;;;;;;;5051794;28;19905;-39
2023/05/29 13:04:09;;;;;;;;;;;;;;;;;;5052905;28;19909;-41
2023/05/29 13:06:35;;;;;;;;;;;;;;;;;;5056040;28;19927;-40
2023/05/29 13:09:01;;;;;;;;;;;;;;;;;;5055938;28;19909;-40
2023/05/29 13:11:27;;;;;;;;;;;;;;;;;;5056115;28;19920;-41
2023/05/29 13:13:53;;;;;;;;;;;;;;;;;;5054861;28;19913;-40
2023/05/29 13:16:19;;;;;;;;;;;;;;;;;;5055844;28;19913;-38
2023/05/29 13:18:45;;;;;;;;;;;;;;;;;;5055724;28;20285;-41
2023/05/29 13:21:10;;;;;;;;;;;;;;;;;;5055667;28;19935;-41
2023/05/29 13:23:36;;;;;;;;;;;;;;;;;;5055855;28;19909;-40
2023/05/29 13:26:02;;;;;;;;;;;;;;;;;;5054442;28;20372;-41
2023/05/29 13:28:28;;;;;;;;;;;;;;;;;;5055642;28;19909;-40
2023/05/29 13:30:54;;;;;;;;;;;;;;;;;;5055527;28;19920;-41
2023/05/29 13:33:20;;;;;;;;;;;;;;;;;;5055471;28;19912;-39
2023/05/29 13:35:46;;;;;;;;;;;;;;;;;;5055513;28;19909;-41
2023/05/29 13:38:12;;;;;;;;;;;;;;;;;;5055334;28;20022;-40
2023/05/29 13:40:38;;;;;;;;;;;;;;;;;;5055222;28;19959;-41
2023/05/29 13:43:04;;;;;;;;;;;;;;;;;;5055263;28;20358;-39
2023/05/29 13:45:30;;;;;;;;;;;;;;;;;;5053941;28;19997;-41
2023/05/29 13:47:56;;;;;;;;;;;;;;;;;;5055219;28;19909;-40
2023/05/29 13:50:23;;;;;;;;;;;;;;;;;;5055029;28;19916;-40
2023/05/29 13:52:49;;;;;;;;;;;;;;;;;;5053693;28;20007;-40
2023/05/29 13:55:15;;;;;;;;;;;;;;;;;;5055106;28;20007;-41
2023/05/29 13:57:42;;;;;;;;;;;;;;;;;;5055018;28;20010;-40
2023/05/29 14:00:09;;;;;;;;;;;;;;;;;;5054978;28;19908;-40
2023/05/29 14:02:35;;;;;;;;;;;;;;;;;;5054941;28;20016;-39
2023/05/29 14:05:01;;;;;;;;;;;;;;;;;;5055058;28;20380;-40
2023/05/29 14:07:27;;;;;;;;;;;;;;;;;;5054835;28;19917;-41
2023/05/29 14:09:53;;;;;;;;;;;;;;;;;;5055013;28;19923;-38
2023/05/29 14:12:19;;;;;;;;;;;;;;;;;;5055276;28;19909;-41
2023/05/29 14:14:45;;;;;;;;;;;;;;;;;;5054830;28;19909;-42
2023/05/29 14:17:12;;;;;;;;;;;;;;;;;;5053749;28;19912;-43
2023/05/29 14:19:38;;;;;;;;;;;;;;;;;;5054653;28;19978;-41
2023/05/29 14:22:04;;;;;;;;;;;;;;;;;;5054646;28;19909;-41
2023/05/29 14:24:29;;;;;;;;;;;;;;;;;;5054393;28;19916;-42
2023/05/29 14:26:55;;;;;;;;;;;;;;;;;;5054391;28;19959;-41
2023/05/29 14:29:21;;;;;;;;;;;;;;;;;;5054462;28;19909;-41
2023/05/29 14:31:47;;;;;;;;;;;;;;;;;;5054580;28;20358;-41
2023/05/29 14:34:13;;;;;;;;;;;;;;;;;;5054317;28;19909;-41
2023/05/29 14:36:39;;;;;;;;;;;;;;;;;;5054377;28;19912;-41
2023/05/29 14:39:05;;;;;;;;;;;;;;;;;;5054275;28;20265;-41
2023/05/29 14:41:31;;;;;;;;;;;;;;;;;;5054337;28;19917;-41
2023/05/29 14:43:58;;;;;;;;;;;;;;;;;;5054070;28;20314;-41
2023/05/29 14:46:23;;;;;;;;;;;;;;;;;;5053988;28;20007;-40
2023/05/29 14:48:49;;;;;;;;;;;;;;;;;;5054160;28;19991;-39
2023/05/29 14:51:16;;;;;;;;;;;;;;;;;;5054039;28;19919;-44
2023/05/29 14:53:42;;;;;;;;;;;;;;;;;;5054050;28;19931;-41
2023/05/29 14:56:07;;;;;;;;;;;;;;;;;;5053880;28;19908;-41
2023/05/29 14:58:33;;;;;;;;;;;;;;;;;;5054059;28;20012;-40
2023/05/29 15:00:59;;;;;;;;;;;;;;;;;;5054085;28;19912;-38
2023/05/29 15:03:26;;;;;;;;;;;;;;;;;;5054322;28;19944;-42
2023/05/29 15:05:52;;;;;;;;;;;;;;;;;;5053746;28;19920;-40
2023/05/29 15:08:18;;;;;;;;;;;;;;;;;;5053775;28;19908;-39
2023/05/29 15:10:44;;;;;;;;;;;;;;;;;;5053494;28;19909;-38
2023/05/29 15:13:10;;;;;;;;;;;;;;;;;;5052393;28;20276;-39
2023/05/29 15:15:36;;;;;;;;;;;;;;;;;;5053784;28;20277;-40
2023/05/29 15:18:02;;;;;;;;;;;;;;;;;;5053732;28;19909;-41
2023/05/29 15:20:27;;;;;;;;;;;;;;;;;;5053579;28;19916;-38
2023/05/29 15:22:53;;;;;;;;;;;;;;;;;;5052138;28;19909;-37
2023/05/29 15:25:19;;;;;;;;;;;;;;;;;;5053473;28;20388;-40
2023/05/29 15:27:45;;;;;;;;;;;;;;;;;;5053373;28;19908;-43
2023/05/29 15:30:11;;;;;;;;;;;;;;;;;;5052127;28;20375;-39
2023/05/29 15:32:37;;;;;;;;;;;;;;;;;;5053276;28;19909;-40
2023/05/29 15:35:03;;;;;;;;;;;;;;;;;;5053172;28;19915;-38
2023/05/29 15:37:28;;;;;;;;;;;;;;;;;;5053248;28;19916;-38
2023/05/29 15:39:54;;;;;;;;;;;;;;;;;;5053083;28;20011;-41
2023/05/29 15:42:21;;;;;;;;;;;;;;;;;;5053037;28;20384;-40
2023/05/29 15:44:47;;;;;;;;;;;;;;;;;;5053168;28;19931;-40
2023/05/29 15:47:13;;;;;;;;;;;;;;;;;;5052860;28;20361;-39
2023/05/29 15:49:39;;;;;;;;;;;;;;;;;;5053208;28;19935;-40
2023/05/29 15:52:05;;;;;;;;;;;;;;;;;;5053107;28;20241;-38
2023/05/29 15:54:31;;;;;;;;;;;;;;;;;;5051704;28;19920;-39
2023/05/29 15:56:59;;;;;;;;;;;;;;;;;;5052927;28;19960;-40
2023/05/29 15:59:25;;;;;;;;;;;;;;;;;;5051707;28;19919;-39
2023/05/29 16:01:51;;;;;;;;;;;;;;;;;;5052697;28;20332;-40
2023/05/29 16:04:17;;;;;;;;;;;;;;;;;;5052798;28;19909;-41
2023/05/29 16:06:43;;;;;;;;;;;;;;;;;;5052587;28;19919;-41
2023/05/29 16:09:09;;;;;;;;;;;;;;;;;;5052667;28;19908;-40
2023/05/29 16:11:35;;;;;;;;;;;;;;;;;;5052655;28;20349;-40
2023/05/29 16:14:01;;;;;;;;;;;;;;;;;;5052504;28;19917;-40
2023/05/29 16:16:29;;;;;;;;;;;;;;;;;;5052799;28;20342;-38
2023/05/29 16:18:55;;;;;;;;;;;;;;;;;;5052516;28;19908;-39
2023/05/29 16:21:21;;;;;;;;;;;;;;;;;;5052306;28;19916;-41
2023/05/29 16:23:47;;;;;;;;;;;;;;;;;;5052905;28;20265;-40
2023/05/29 16:26:13;;;;;;;;;;;;;;;;;;5052313;28;19913;-40
2023/05/29 16:28:39;;;;;;;;;;;;;;;;;;5052361;28;20384;-41
2023/05/29 16:31:05;;;;;;;;;;;;;;;;;;5051070;28;19909;-39
2023/05/29 16:33:31;;;;;;;;;;;;;;;;;;5052223;28;19908;-41
2023/05/29 16:35:57;;;;;;;;;;;;;;;;;;5052077;28;19934;-41
2023/05/29 16:38:23;;;;;;;;;;;;;;;;;;5051761;28;19909;-41